Time;durP1;ratioP1;P1;durP2;ratioP2;P2;SDS_P1;SDS_P2;PMS_P1;PMS_P2;Temp;Humidity;BMP_temperature;BMP_pressure;BME280_temperature;BME280_humidity;BME280_pressure;Samples;Min_cycle;Max_cycle;Signal;HPM_P1;HPM_P2
2023/08/17 00:02:21;;;;;;;3.58;2.80;;;16.50;99.90;;;;;;5112448;27;20047;-83
2023/08/17 00:04:46;;;;;;;5.55;2.70;;;16.50;99.90;;;;;;5099274;27;20134;-81
2023/08/17 00:07:12;;;;;;;4.85;2.70;;;16.50;99.90;;;;;;5116457;27;20046;-83
2023/08/17 00:09:39;;;;;;;4.95;2.47;;;16.50;99.90;;;;;;5122976;27;20050;-81
2023/08/17 00:12:05;;;;;;;4.00;2.30;;;16.50;99.90;;;;;;5127401;27;20150;-83
2023/08/17 00:14:30;;;;;;;4.90;2.38;;;16.50;99.90;;;;;;5104199;27;20128;-82
2023/08/17 00:16:56;;;;;;;3.50;2.55;;;16.50;99.90;;;;;;5123203;27;20082;-83
2023/08/17 00:19:22;;;;;;;2.35;2.05;;;16.50;99.90;;;;;;5121682;27;20481;-82
2023/08/17 00:21:47;;;;;;;3.92;2.40;;;16.60;99.90;;;;;;5124566;27;20047;-83
2023/08/17 00:24:13;;;;;;;5.22;2.70;;;16.60;99.90;;;;;;5128800;27;20766;-81
2023/08/17 00:26:39;;;;;;;3.35;2.78;;;16.60;99.90;;;;;;5134886;27;20062;-82
2023/08/17 00:29:04;;;;;;;4.10;2.65;;;16.60;99.90;;;;;;5111946;27;20813;-82
2023/08/17 00:31:30;;;;;;;3.53;2.17;;;16.50;99.90;;;;;;5120392;27;20039;-81
2023/08/17 00:33:56;;;;;;;4.28;2.70;;;16.50;99.90;;;;;;5087941;27;20516;-83
2023/08/17 00:36:21;;;;;;;5.63;3.17;;;16.50;99.90;;;;;;5107359;27;20039;-75
2023/08/17 00:38:47;;;;;;;4.70;3.05;;;16.50;99.90;;;;;;5133687;27;20095;-75
2023/08/17 00:41:13;;;;;;;3.67;2.10;;;16.50;99.90;;;;;;5133620;27;20134;-74
2023/08/17 00:43:38;;;;;;;2.67;2.20;;;16.50;99.90;;;;;;5133375;27;20058;-75
2023/08/17 00:46:04;;;;;;;4.22;2.45;;;16.50;99.90;;;;;;5133951;27;20054;-74
2023/08/17 00:48:31;;;;;;;4.65;3.03;;;16.50;99.90;;;;;;5133531;27;20042;-74
2023/08/17 00:50:59;;;;;;;6.57;2.83;;;16.50;99.90;;;;;;5133249;27;20530;-75
2023/08/17 00:53:28;;;;;;;7.30;2.90;;;16.50;99.90;;;;;;5133460;27;20086;-75
2023/08/17 00:55:54;;;;;;;4.95;2.60;;;16.50;99.90;;;;;;5115074;28;20051;-73
2023/08/17 00:58:21;;;;;;;4.50;2.53;;;16.50;99.90;;;;;;5133812;28;20436;-75
2023/08/17 01:00:47;;;;;;;4.70;2.80;;;16.50;99.90;;;;;;5133936;28;20051;-74
2023/08/17 01:03:13;;;;;;;5.22;2.75;;;16.50;99.90;;;;;;5115037;28;20403;-74
2023/08/17 01:05:38;;;;;;;4.70;2.40;;;16.50;99.90;;;;;;5115069;28;20082;-75
2023/08/17 01:08:04;;;;;;;6.40;2.35;;;16.50;99.90;;;;;;5115551;28;20054;-74
2023/08/17 01:11:03;;;;;;;5.25;2.50;;;16.40;99.90;;;;;;5133311;28;20096;-74
2023/08/17 01:13:53;;;;;;;3.78;2.22;;;16.40;99.90;;;;;;5105270;28;20051;-75
2023/08/17 01:16:32;;;;;;;4.78;2.80;;;16.40;99.90;;;;;;5133813;28;20051;-75
2023/08/17 01:19:00;;;;;;;2.72;2.20;;;16.30;99.90;;;;;;5132925;28;20404;-75
2023/08/17 01:21:35;;;;;;;4.63;2.65;;;16.40;99.90;;;;;;5133194;28;20444;-74
2023/08/17 01:24:03;;;;;;;4.10;2.72;;;16.30;99.90;;;;;;5135410;27;20106;-75
2023/08/17 01:26:29;;;;;;;5.47;2.67;;;16.30;99.90;;;;;;5137423;27;20051;-75
2023/08/17 01:28:55;;;;;;;4.80;3.35;;;16.30;99.90;;;;;;5137890;27;20043;-75
2023/08/17 01:31:32;;;;;;;3.05;2.75;;;16.30;99.90;;;;;;5137144;27;20513;-75
2023/08/17 01:34:05;;;;;;;8.25;3.22;;;16.30;99.90;;;;;;5137526;27;20127;-75
2023/08/17 01:36:39;;;;;;;3.05;2.50;;;16.30;99.90;;;;;;5137087;27;20083;-75
2023/08/17 01:39:07;;;;;;;4.03;2.75;;;16.20;99.90;;;;;;5137618;27;20047;-76
2023/08/17 01:41:34;;;;;;;6.35;2.97;;;16.20;99.90;;;;;;5137153;27;20051;-73
2023/08/17 01:44:01;;;;;;;4.05;2.72;;;16.20;99.90;;;;;;5136760;27;20103;-75
2023/08/17 01:46:34;;;;;;;3.00;2.72;;;16.10;99.90;;;;;;5118580;27;20055;-75
2023/08/17 01:49:00;;;;;;;4.07;2.80;;;16.00;99.90;;;;;;5137415;27;20047;-73
2023/08/17 01:51:26;;;;;;;6.15;2.90;;;16.00;99.90;;;;;;5137433;27;20046;-75
2023/08/17 01:53:51;;;;;;;10.73;2.85;;;15.90;99.90;;;;;;5136802;27;20451;-75
2023/08/17 01:56:17;;;;;;;2.65;2.45;;;15.90;99.90;;;;;;5118576;27;20078;-74
2023/08/17 01:58:43;;;;;;;5.07;3.08;;;15.80;99.90;;;;;;5136851;27;20051;-73
2023/08/17 02:01:09;;;;;;;3.92;2.88;;;15.80;99.90;;;;;;5136816;27;20043;-75
2023/08/17 02:03:35;;;;;;;4.72;2.65;;;15.80;99.90;;;;;;5136645;27;20042;-74
2023/08/17 02:06:01;;;;;;;2.97;2.20;;;15.80;99.90;;;;;;5136514;27;20039;-75
2023/08/17 02:08:27;;;;;;;4.90;2.90;;;15.80;99.90;;;;;;5136369;27;20455;-75
2023/08/17 02:10:52;;;;;;;6.60;3.00;;;15.80;99.90;;;;;;5118084;27;20058;-74
2023/08/17 02:13:18;;;;;;;3.05;2.50;;;15.80;99.90;;;;;;5136404;27;20043;-74
2023/08/17 02:15:46;;;;;;;6.15;2.97;;;15.80;99.90;;;;;;5136523;27;20126;-75
2023/08/17 02:18:11;;;;;;;4.88;2.78;;;15.80;99.90;;;;;;5117897;27;20069;-75
2023/08/17 02:20:37;;;;;;;3.83;2.80;;;15.80;99.90;;;;;;5136603;27;20092;-74
2023/08/17 02:23:03;;;;;;;8.00;2.47;;;15.80;99.90;;;;;;5136860;27;20058;-74
2023/08/17 02:25:35;;;;;;;8.35;3.28;;;15.80;99.90;;;;;;5118418;27;20039;-74
2023/08/17 02:28:02;;;;;;;3.87;2.70;;;15.80;99.90;;;;;;5136705;27;20487;-74
2023/08/17 02:30:28;;;;;;;4.88;2.80;;;15.80;99.90;;;;;;5136574;27;20042;-75
2023/08/17 02:32:53;;;;;;;3.35;2.83;;;15.90;99.90;;;;;;5135957;27;20519;-74
2023/08/17 02:35:19;;;;;;;3.50;2.65;;;15.80;99.90;;;;;;5134772;27;20542;-74
2023/08/17 02:37:45;;;;;;;5.97;3.22;;;15.80;99.90;;;;;;5135638;27;20035;-75
2023/08/17 02:40:11;;;;;;;4.53;2.75;;;15.80;99.90;;;;;;5135722;27;20074;-74
2023/08/17 02:42:36;;;;;;;6.13;3.20;;;15.80;99.90;;;;;;5101367;27;20439;-74
2023/08/17 02:45:02;;;;;;;6.70;2.83;;;15.80;99.90;;;;;;5136484;27;20055;-75
2023/08/17 02:47:28;;;;;;;7.40;3.17;;;15.80;99.90;;;;;;5118186;27;20533;-71
2023/08/17 02:49:54;;;;;;;8.82;3.97;;;15.80;99.90;;;;;;5135647;27;20448;-71
2023/08/17 02:52:19;;;;;;;5.28;3.13;;;15.80;99.90;;;;;;5135894;27;20042;-71
2023/08/17 02:54:45;;;;;;;5.10;3.53;;;15.90;99.90;;;;;;5135467;27;20039;-74
2023/08/17 02:57:11;;;;;;;4.80;3.08;;;15.80;99.90;;;;;;5134945;27;20111;-72
2023/08/17 02:59:37;;;;;;;6.10;3.50;;;15.80;99.90;;;;;;5117677;27;20054;-72
2023/08/17 03:02:03;;;;;;;7.68;4.18;;;15.80;99.90;;;;;;5135315;27;20039;-73
2023/08/17 03:04:28;;;;;;;3.72;2.92;;;15.90;99.90;;;;;;5135336;27;20039;-73
2023/08/17 03:06:54;;;;;;;6.18;3.05;;;15.90;99.90;;;;;;5135243;27;20126;-73
2023/08/17 03:09:19;;;;;;;4.95;3.03;;;15.90;99.90;;;;;;5135792;27;20455;-73
2023/08/17 03:11:45;;;;;;;6.50;3.25;;;15.90;99.90;;;;;;5135140;27;20476;-73
2023/08/17 03:14:11;;;;;;;5.60;3.05;;;15.90;99.90;;;;;;5135437;27;20192;-73
2023/08/17 03:16:37;;;;;;;5.93;2.90;;;16.00;99.90;;;;;;5135225;27;20059;-74
2023/08/17 03:19:03;;;;;;;3.45;2.58;;;15.90;99.90;;;;;;5135608;27;20047;-74
2023/08/17 03:21:29;;;;;;;4.53;3.28;;;15.90;99.90;;;;;;5135106;27;20122;-73
2023/08/17 03:23:55;;;;;;;7.00;2.97;;;15.90;99.90;;;;;;5135315;27;20136;-74
2023/08/17 03:26:20;;;;;;;6.07;3.30;;;15.90;99.90;;;;;;5135549;27;20054;-74
2023/08/17 03:28:46;;;;;;;3.70;2.90;;;15.90;99.90;;;;;;5135069;27;20099;-73
2023/08/17 03:31:12;;;;;;;4.70;2.80;;;15.90;99.90;;;;;;5135357;27;20511;-73
2023/08/17 03:33:37;;;;;;;4.95;2.97;;;15.90;99.90;;;;;;5135086;27;20426;-72
2023/08/17 03:36:04;;;;;;;3.67;3.38;;;15.90;99.90;;;;;;5135059;27;20059;-72
2023/08/17 03:38:29;;;;;;;5.03;3.55;;;15.80;99.90;;;;;;5134342;27;20496;-74
2023/08/17 03:40:55;;;;;;;5.78;2.95;;;15.80;99.90;;;;;;5135084;27;20051;-74
2023/08/17 03:43:21;;;;;;;5.22;2.85;;;15.80;99.90;;;;;;5134613;27;20043;-72
2023/08/17 03:45:46;;;;;;;7.28;3.47;;;15.80;99.90;;;;;;5134518;27;20069;-74
2023/08/17 03:48:12;;;;;;;4.82;3.50;;;15.80;99.90;;;;;;5134244;27;20054;-73
2023/08/17 03:50:38;;;;;;;4.32;2.90;;;15.70;99.90;;;;;;5134744;27;20096;-73
2023/08/17 03:53:03;;;;;;;5.40;3.47;;;15.70;99.90;;;;;;5134680;27;20078;-73
2023/08/17 03:55:29;;;;;;;5.43;3.05;;;15.70;99.90;;;;;;5099147;27;20055;-73
2023/08/17 03:57:55;;;;;;;4.22;3.15;;;15.70;99.90;;;;;;5134361;27;20035;-73
2023/08/17 04:00:20;;;;;;;5.60;3.50;;;15.60;99.90;;;;;;5134335;27;20470;-73
2023/08/17 04:02:46;;;;;;;5.38;3.30;;;15.60;99.90;;;;;;5115870;27;20051;-73
2023/08/17 04:05:12;;;;;;;6.22;3.70;;;15.60;99.90;;;;;;5133906;27;20047;-73
2023/08/17 04:07:38;;;;;;;4.70;3.08;;;15.60;99.90;;;;;;5134580;27;20079;-73
2023/08/17 04:10:07;;;;;;;5.30;3.88;;;15.60;99.90;;;;;;5134070;27;20086;-74
2023/08/17 04:12:33;;;;;;;6.28;3.58;;;15.50;99.90;;;;;;5134388;27;20097;-74
2023/08/17 04:14:59;;;;;;;8.82;4.25;;;15.50;99.90;;;;;;5134536;27;20115;-74
2023/08/17 04:17:24;;;;;;;4.80;3.80;;;15.60;99.90;;;;;;5134260;27;20611;-74
2023/08/17 04:19:50;;;;;;;6.90;4.32;;;15.50;99.90;;;;;;5133877;27;20053;-75
2023/08/17 04:22:16;;;;;;;4.05;2.92;;;15.50;99.90;;;;;;5134112;27;20058;-73
2023/08/17 04:24:42;;;;;;;6.18;3.88;;;15.50;99.90;;;;;;5133877;27;20043;-74
2023/08/17 04:27:08;;;;;;;7.03;3.38;;;15.50;99.90;;;;;;5133683;27;20053;-73
2023/08/17 04:29:33;;;;;;;4.88;3.35;;;15.50;99.90;;;;;;5133813;27;20129;-72
2023/08/17 04:31:59;;;;;;;7.35;3.80;;;15.50;99.90;;;;;;5134409;27;20079;-75
2023/08/17 04:34:25;;;;;;;6.45;3.92;;;15.50;99.90;;;;;;5134170;27;20057;-73
2023/08/17 04:36:51;;;;;;;6.57;3.55;;;15.50;99.90;;;;;;5133577;27;20553;-72
2023/08/17 04:39:17;;;;;;;5.22;3.65;;;15.50;99.90;;;;;;5115900;28;20109;-73
2023/08/17 04:41:43;;;;;;;6.20;3.90;;;15.50;99.90;;;;;;5133745;27;20043;-73
2023/08/17 04:44:08;;;;;;;7.75;3.72;;;15.50;99.90;;;;;;5133100;27;20470;-73
2023/08/17 04:46:35;;;;;;;5.65;3.60;;;15.50;99.90;;;;;;5133961;27;20051;-73
2023/08/17 04:49:01;;;;;;;4.25;3.10;;;15.40;99.90;;;;;;5134110;27;20388;-73
2023/08/17 04:51:26;;;;;;;5.85;2.90;;;15.50;99.90;;;;;;5133476;27;20047;-73
2023/08/17 04:53:52;;;;;;;4.75;3.05;;;15.50;99.90;;;;;;5132945;27;20115;-72
2023/08/17 04:56:18;;;;;;;4.35;3.50;;;15.50;99.90;;;;;;5133472;27;20085;-73
2023/08/17 04:58:44;;;;;;;5.75;3.10;;;15.40;99.90;;;;;;5132688;27;20083;-73
2023/08/17 05:01:10;;;;;;;4.00;2.95;;;15.40;99.90;;;;;;5133399;28;20107;-73
2023/08/17 05:03:36;;;;;;;4.43;3.20;;;15.40;99.90;;;;;;5133182;28;20043;-73
2023/08/17 05:06:01;;;;;;;3.80;3.20;;;15.40;99.90;;;;;;5133555;28;20071;-73
2023/08/17 05:08:27;;;;;;;4.32;3.08;;;15.40;99.90;;;;;;5114873;28;20051;-73
2023/08/17 05:10:53;;;;;;;4.20;2.90;;;15.40;99.90;;;;;;5133169;28;20043;-73
2023/08/17 05:13:19;;;;;;;4.30;3.03;;;15.50;99.90;;;;;;5133182;28;20043;-73
2023/08/17 05:15:45;;;;;;;3.70;2.80;;;15.50;99.90;;;;;;5114954;28;20375;-73
2023/08/17 05:18:10;;;;;;;7.95;3.28;;;15.50;99.90;;;;;;5133495;28;20389;-72
2023/08/17 05:20:36;;;;;;;4.13;3.00;;;15.60;99.90;;;;;;5133677;28;20043;-73
2023/08/17 05:23:02;;;;;;;5.75;2.95;;;15.60;99.90;;;;;;5133018;28;20449;-73
2023/08/17 05:25:29;;;;;;;3.00;2.72;;;15.60;99.90;;;;;;5133549;28;20035;-73
2023/08/17 05:27:55;;;;;;;3.65;2.63;;;15.70;99.90;;;;;;5133323;28;20043;-74
2023/08/17 05:30:21;;;;;;;3.97;2.40;;;15.70;99.90;;;;;;5132995;28;20054;-74
2023/08/17 05:32:47;;;;;;;2.90;2.45;;;15.80;99.90;;;;;;5115233;28;20051;-74
2023/08/17 05:35:13;;;;;;;2.80;2.55;;;15.80;99.90;;;;;;5132779;28;20435;-74
2023/08/17 05:37:38;;;;;;;5.63;2.90;;;15.80;99.90;;;;;;5132962;28;20123;-74
2023/08/17 05:40:05;;;;;;;4.15;2.85;;;15.80;99.90;;;;;;5132686;28;20095;-73
2023/08/17 05:42:30;;;;;;;3.53;2.60;;;15.90;99.90;;;;;;5132773;28;20048;-73
2023/08/17 05:44:56;;;;;;;5.65;2.85;;;15.90;99.90;;;;;;5132688;28;20134;-75
2023/08/17 05:47:22;;;;;;;6.90;2.70;;;15.90;99.90;;;;;;5132773;28;20386;-74
2023/08/17 05:49:47;;;;;;;5.10;2.88;;;16.00;99.90;;;;;;5132844;28;20133;-74
2023/08/17 05:52:13;;;;;;;4.38;2.70;;;16.10;99.90;;;;;;5132554;28;20051;-73
2023/08/17 05:54:39;;;;;;;4.60;3.28;;;16.20;99.90;;;;;;5114219;28;20035;-78
2023/08/17 05:57:05;;;;;;;3.80;2.10;;;16.20;99.90;;;;;;5114381;28;20046;-72
2023/08/17 05:59:31;;;;;;;4.00;2.92;;;16.30;99.90;;;;;;5132844;28;20464;-72
2023/08/17 06:01:56;;;;;;;4.22;2.92;;;16.40;99.90;;;;;;5132750;28;20412;-73
2023/08/17 06:04:22;;;;;;;4.70;2.90;;;16.40;99.90;;;;;;5132607;28;20546;-72
2023/08/17 06:06:48;;;;;;;5.50;2.85;;;16.40;99.90;;;;;;5132766;28;20055;-72
2023/08/17 06:09:14;;;;;;;5.38;2.35;;;16.40;99.90;;;;;;5114952;27;20039;-72
2023/08/17 06:11:40;;;;;;;8.60;3.00;;;16.50;99.90;;;;;;5100681;27;20058;-72
2023/08/17 06:14:06;;;;;;;2.40;2.20;;;16.50;99.90;;;;;;5136180;27;20070;-71
2023/08/17 06:16:32;;;;;;;6.30;2.80;;;16.60;99.90;;;;;;5118012;27;20456;-72
2023/08/17 06:18:58;;;;;;;6.88;2.65;;;16.60;99.90;;;;;;5136250;27;20047;-72
2023/08/17 06:21:23;;;;;;;5.55;2.90;;;16.60;99.90;;;;;;5136186;27;20510;-72
2023/08/17 06:23:49;;;;;;;4.20;2.40;;;16.70;99.90;;;;;;5136082;27;20055;-71
2023/08/17 06:26:15;;;;;;;5.93;2.50;;;16.70;99.90;;;;;;5118301;27;20043;-72
2023/08/17 06:28:40;;;;;;;6.40;2.72;;;16.80;99.90;;;;;;5117596;27;20035;-71
2023/08/17 06:31:06;;;;;;;7.90;3.03;;;16.80;99.90;;;;;;5135535;27;20524;-78
2023/08/17 06:33:32;;;;;;;4.50;2.53;;;16.90;99.90;;;;;;5136404;27;20091;-78
2023/08/17 06:35:58;;;;;;;7.20;2.38;;;16.90;99.90;;;;;;5136151;27;20502;-77
2023/08/17 06:38:23;;;;;;;8.65;2.60;;;17.00;99.90;;;;;;5117756;27;20416;-78
2023/08/17 06:40:49;;;;;;;3.85;2.63;;;17.00;99.90;;;;;;5135924;27;20043;-79
2023/08/17 06:43:15;;;;;;;3.30;2.03;;;17.10;99.90;;;;;;5117769;27;20046;-83
2023/08/17 06:45:40;;;;;;;4.38;2.65;;;17.20;99.90;;;;;;5117792;27;20508;-76
2023/08/17 06:48:06;;;;;;;4.72;2.70;;;17.30;99.90;;;;;;5117638;27;20054;-79
2023/08/17 06:50:32;;;;;;;5.40;2.40;;;17.30;99.90;;;;;;5136075;27;20035;-73
2023/08/17 06:52:57;;;;;;;8.43;2.45;;;17.40;99.90;;;;;;5135500;27;20039;-72
2023/08/17 06:55:23;;;;;;;4.10;2.22;;;17.30;99.90;;;;;;5135302;27;20110;-72
2023/08/17 06:57:52;;;;;;;5.07;2.17;;;17.30;99.90;;;;;;5117376;27;20043;-72
2023/08/17 07:00:21;;;;;;;3.35;1.77;;;17.30;99.90;;;;;;5135529;27;20043;-72
2023/08/17 07:02:48;;;;;;;6.03;2.70;;;17.30;99.90;;;;;;5135267;27;20047;-73
2023/08/17 07:05:18;;;;;;;3.55;2.05;;;17.30;99.90;;;;;;5117006;27;20039;-72
2023/08/17 07:07:44;;;;;;;3.70;2.10;;;17.30;99.90;;;;;;5100498;27;20099;-72
2023/08/17 07:10:10;;;;;;;6.53;2.65;;;17.30;99.90;;;;;;5135570;27;20125;-72
2023/08/17 07:12:37;;;;;;;2.83;2.00;;;17.30;99.90;;;;;;5117341;27;20137;-71
2023/08/17 07:15:04;;;;;;;2.95;2.17;;;17.40;99.90;;;;;;5135712;27;20047;-72
2023/08/17 07:17:30;;;;;;;4.55;1.75;;;17.40;99.90;;;;;;5135007;27;20047;-72
2023/08/17 07:19:55;;;;;;;2.60;1.92;;;17.40;99.90;;;;;;5135023;27;20046;-72
2023/08/17 07:22:21;;;;;;;7.07;2.00;;;17.50;99.90;;;;;;5134262;27;20043;-72
2023/08/17 07:24:47;;;;;;;2.97;1.60;;;17.60;99.90;;;;;;5134774;27;20088;-72
2023/08/17 07:27:12;;;;;;;9.07;1.77;;;17.60;99.90;;;;;;5116477;27;20050;-72
2023/08/17 07:29:38;;;;;;;4.88;2.05;;;17.60;99.90;;;;;;5099920;27;20046;-73
2023/08/17 07:32:04;;;;;;;4.32;2.00;;;17.60;99.90;;;;;;5134966;27;20039;-72
2023/08/17 07:34:31;;;;;;;2.55;1.98;;;17.70;99.90;;;;;;5134924;27;20124;-73
2023/08/17 07:36:57;;;;;;;5.07;1.67;;;17.70;99.90;;;;;;5134738;27;20054;-71
2023/08/17 07:39:25;;;;;;;4.25;2.10;;;17.70;99.90;;;;;;5134852;27;20100;-71
2023/08/17 07:41:50;;;;;;;3.85;1.67;;;17.80;99.90;;;;;;5116603;27;20047;-72
2023/08/17 07:44:16;;;;;;;3.63;1.98;;;17.80;99.90;;;;;;5116190;27;20134;-72
2023/08/17 07:46:42;;;;;;;3.70;1.73;;;17.80;99.90;;;;;;5134769;27;20554;-72
2023/08/17 07:49:07;;;;;;;3.75;1.85;;;17.70;99.90;;;;;;5134505;27;20043;-72
2023/08/17 07:51:33;;;;;;;1.60;1.50;;;17.80;99.90;;;;;;5116914;27;20053;-72
2023/08/17 07:54:02;;;;;;;3.72;1.60;;;17.90;99.90;;;;;;5134819;27;20447;-72
2023/08/17 07:56:27;;;;;;;4.63;1.60;;;17.90;99.90;;;;;;5134387;27;20426;-72
2023/08/17 07:58:54;;;;;;;2.10;1.60;;;17.90;99.90;;;;;;5135093;27;20046;-73
2023/08/17 08:01:20;;;;;;;3.03;1.42;;;17.90;99.90;;;;;;5134326;27;20047;-72
2023/08/17 08:03:46;;;;;;;2.63;1.95;;;17.70;99.90;;;;;;5116445;27;20058;-72
2023/08/17 08:06:12;;;;;;;3.13;1.50;;;17.70;99.90;;;;;;5134251;27;20047;-72
2023/08/17 08:08:41;;;;;;;3.35;1.70;;;17.70;99.90;;;;;;5133996;27;20043;-71
2023/08/17 08:11:07;;;;;;;3.92;1.65;;;17.80;99.90;;;;;;5134057;27;20093;-72
2023/08/17 08:13:32;;;;;;;4.93;1.70;;;17.70;99.90;;;;;;5134437;27;20375;-72
2023/08/17 08:15:58;;;;;;;2.60;1.90;;;17.80;99.90;;;;;;5098784;27;20083;-72
2023/08/17 08:18:24;;;;;;;3.70;1.83;;;17.80;99.90;;;;;;5134500;27;20513;-73
2023/08/17 08:20:50;;;;;;;3.53;1.50;;;17.70;99.90;;;;;;5133909;27;20043;-72
2023/08/17 08:23:16;;;;;;;4.30;1.90;;;17.80;99.90;;;;;;5133943;27;20059;-71
2023/08/17 08:25:41;;;;;;;4.28;1.90;;;17.90;99.90;;;;;;5133720;27;20035;-72
2023/08/17 08:28:08;;;;;;;2.05;1.25;;;18.00;99.90;;;;;;5133912;27;20452;-72
2023/08/17 08:30:34;;;;;;;2.35;1.75;;;18.20;99.90;;;;;;5133812;27;20535;-72
2023/08/17 08:32:59;;;;;;;2.20;1.60;;;18.30;99.90;;;;;;5133268;27;20130;-72
2023/08/17 08:35:26;;;;;;;3.90;1.48;;;18.60;99.90;;;;;;5134072;27;20043;-73
2023/08/17 08:37:51;;;;;;;5.03;1.58;;;18.80;99.90;;;;;;5133644;27;20043;-72
2023/08/17 08:40:18;;;;;;;3.17;1.73;;;18.90;99.90;;;;;;5115350;27;20127;-72
2023/08/17 08:42:44;;;;;;;5.60;1.42;;;19.00;99.90;;;;;;5134130;27;20049;-72
2023/08/17 08:45:10;;;;;;;2.42;1.60;;;19.20;99.90;;;;;;5133435;27;20077;-74
2023/08/17 08:47:41;;;;;;;1.30;1.20;;;19.30;99.90;;;;;;5133459;27;20051;-73
2023/08/17 08:50:08;;;;;;;2.60;1.73;;;19.30;99.90;;;;;;5133571;27;20126;-73
2023/08/17 08:52:39;;;;;;;3.67;2.35;;;19.40;99.90;;;;;;5133808;27;20054;-73
2023/08/17 08:55:14;;;;;;;2.53;1.40;;;19.40;99.90;;;;;;5133342;27;20047;-72
2023/08/17 08:57:42;;;;;;;3.45;1.88;;;19.40;99.90;;;;;;5134054;27;20090;-73
2023/08/17 09:00:09;;;;;;;7.53;2.42;;;19.30;99.90;;;;;;5133671;28;20078;-73
2023/08/17 09:02:35;;;;;;;3.03;1.55;;;19.30;99.90;;;;;;5133755;28;20054;-73
2023/08/17 09:05:02;;;;;;;3.45;1.70;;;19.30;99.90;;;;;;5133680;28;20376;-73
2023/08/17 09:07:30;;;;;;;3.05;1.55;;;19.50;99.90;;;;;;5133264;28;20478;-73
2023/08/17 09:09:56;;;;;;;3.70;1.63;;;19.50;99.90;;;;;;5115821;28;20069;-73
2023/08/17 09:12:22;;;;;;;3.70;1.60;;;19.40;99.90;;;;;;5133753;28;20119;-73
2023/08/17 09:14:48;;;;;;;3.15;1.63;;;19.50;99.90;;;;;;5115592;28;20039;-72
2023/08/17 09:17:14;;;;;;;1.58;1.48;;;19.50;99.90;;;;;;5132877;28;20070;-72
2023/08/17 09:19:39;;;;;;;4.18;1.73;;;19.70;99.90;;;;;;5133094;28;20060;-72
2023/08/17 09:22:05;;;;;;;1.73;1.50;;;19.90;99.90;;;;;;5133163;28;20105;-73
2023/08/17 09:24:37;;;;;;;5.70;1.90;;;20.10;99.90;;;;;;5115438;28;20126;-72
2023/08/17 09:27:04;;;;;;;5.55;1.60;;;20.10;99.90;;;;;;5132500;28;20520;-72
2023/08/17 09:29:36;;;;;;;3.75;1.90;;;20.10;99.90;;;;;;5133107;28;20043;-74
2023/08/17 09:32:10;;;;;;;2.95;1.70;;;20.20;99.90;;;;;;5133470;28;20487;-73
2023/08/17 09:34:35;;;;;;;2.13;1.55;;;20.20;99.90;;;;;;5132640;28;20523;-75
2023/08/17 09:37:05;;;;;;;5.13;1.70;;;20.10;99.90;;;;;;5115100;28;20051;-73
2023/08/17 09:39:34;;;;;;;5.45;1.90;;;20.00;99.90;;;;;;5133422;28;20048;-73
2023/08/17 09:42:00;;;;;;;2.42;1.85;;;19.90;99.90;;;;;;5133096;28;20047;-73
2023/08/17 09:44:26;;;;;;;2.10;1.27;;;19.90;99.90;;;;;;5134334;27;20063;-73
2023/08/17 09:46:56;;;;;;;4.72;1.92;;;19.90;99.90;;;;;;5136703;27;20047;-74
2023/08/17 09:49:24;;;;;;;3.28;1.70;;;19.80;99.90;;;;;;5136849;27;20135;-74
2023/08/17 09:51:52;;;;;;;2.22;1.70;;;19.70;99.90;;;;;;5136820;27;20462;-74
2023/08/17 09:54:22;;;;;;;1.75;1.65;;;19.70;99.90;;;;;;5136557;27;20047;-73
2023/08/17 09:56:52;;;;;;;4.00;1.95;;;19.70;99.90;;;;;;5118249;27;20505;-73
2023/08/17 09:59:17;;;;;;;4.63;1.98;;;19.70;99.90;;;;;;5136509;27;20133;-73
2023/08/17 10:01:45;;;;;;;2.97;1.83;;;19.60;99.90;;;;;;5136533;27;20070;-72
2023/08/17 10:04:12;;;;;;;2.83;1.45;;;19.70;99.90;;;;;;5137023;27;20046;-73
2023/08/17 10:06:41;;;;;;;2.28;1.85;;;19.60;99.90;;;;;;5136907;27;20062;-73
2023/08/17 10:09:09;;;;;;;4.30;1.80;;;19.70;99.90;;;;;;5136293;27;20072;-73
2023/08/17 10:11:37;;;;;;;2.40;1.60;;;19.90;99.90;;;;;;5136333;27;20043;-73
2023/08/17 10:14:12;;;;;;;3.88;1.92;;;20.00;99.90;;;;;;5136340;27;20043;-73
2023/08/17 10:16:45;;;;;;;4.88;1.90;;;20.10;99.90;;;;;;5137045;27;20065;-73
2023/08/17 10:19:30;;;;;;;5.80;1.60;;;20.70;99.90;;;;;;5136488;27;20203;-73
2023/08/17 10:22:17;;;;;;;3.20;1.80;;;21.10;99.90;;;;;;5136298;27;20043;-73
2023/08/17 10:24:43;;;;;;;4.25;1.73;;;22.40;99.90;;;;;;5135934;27;20049;-72
2023/08/17 10:27:10;;;;;;;3.95;1.90;;;23.10;99.90;;;;;;5118533;27;20051;-73
2023/08/17 10:29:38;;;;;;;2.97;1.77;;;23.10;99.90;;;;;;5136198;27;20043;-73
2023/08/17 10:32:06;;;;;;;2.55;1.70;;;22.70;99.90;;;;;;5136050;27;20045;-73
2023/08/17 10:34:33;;;;;;;4.57;1.95;;;22.50;99.90;;;;;;5136002;27;20047;-74
2023/08/17 10:37:00;;;;;;;4.60;2.00;;;22.30;99.90;;;;;;5118372;27;20053;-73
2023/08/17 10:39:27;;;;;;;4.10;1.98;;;21.90;99.90;;;;;;5136267;27;20043;-74
2023/08/17 10:41:54;;;;;;;2.92;1.70;;;21.70;99.90;;;;;;5117812;27;20118;-74
2023/08/17 10:44:45;;;;;;;2.85;1.70;;;21.60;99.90;;;;;;5117689;27;20048;-73
2023/08/17 10:47:24;;;;;;;2.85;1.90;;;21.60;99.90;;;;;;5135931;27;20176;-73
2023/08/17 10:50:11;;;;;;;3.13;2.00;;;22.20;99.90;;;;;;5135649;27;20039;-73
2023/08/17 10:52:40;;;;;;;3.88;2.33;;;22.50;99.90;;;;;;5103352;27;20411;-73
2023/08/17 10:55:07;;;;;;;4.07;2.10;;;22.30;99.90;;;;;;5135912;27;20043;-74
2023/08/17 10:57:38;;;;;;;3.63;1.70;;;22.10;99.90;;;;;;5134434;27;20054;-74
2023/08/17 11:00:17;;;;;;;5.03;1.83;;;21.70;99.90;;;;;;5117337;27;20047;-73
2023/08/17 11:03:03;;;;;;;2.00;1.65;;;21.30;99.90;;;;;;5117555;27;20108;-74
2023/08/17 11:05:40;;;;;;;5.43;2.38;;;21.20;99.90;;;;;;5117551;27;20069;-73
2023/08/17 11:08:10;;;;;;;2.70;2.10;;;21.20;99.90;;;;;;5135839;27;20081;-73
2023/08/17 11:10:38;;;;;;;3.00;2.35;;;21.20;99.90;;;;;;5135261;27;20118;-73
2023/08/17 11:13:04;;;;;;;3.33;2.10;;;21.30;99.90;;;;;;5134943;27;20509;-74
2023/08/17 11:15:43;;;;;;;3.80;2.35;;;21.20;99.90;;;;;;5135303;27;20104;-72
2023/08/17 11:18:10;;;;;;;3.92;2.25;;;21.10;99.90;;;;;;5135080;27;20047;-73
2023/08/17 11:20:38;;;;;;;3.78;2.38;;;21.00;99.90;;;;;;5135355;27;20433;-73
2023/08/17 11:23:08;;;;;;;2.80;2.13;;;21.00;99.90;;;;;;5117080;27;20051;-73
2023/08/17 11:25:36;;;;;;;3.92;2.42;;;20.90;99.90;;;;;;5134993;27;20047;-73
2023/08/17 11:28:02;;;;;;;4.10;2.30;;;21.00;99.90;;;;;;5117532;27;20066;-73
2023/08/17 11:30:29;;;;;;;4.80;3.05;;;21.00;99.90;;;;;;5117127;27;20047;-73
2023/08/17 11:32:56;;;;;;;2.92;2.40;;;21.00;99.90;;;;;;5135265;27;20467;-74
2023/08/17 11:35:22;;;;;;;3.65;2.50;;;21.10;99.90;;;;;;5135516;27;20122;-73
2023/08/17 11:37:49;;;;;;;5.07;2.50;;;21.20;99.90;;;;;;5135359;27;20539;-73
2023/08/17 11:40:15;;;;;;;2.63;2.40;;;21.20;99.90;;;;;;5116687;27;20038;-73
2023/08/17 11:42:42;;;;;;;3.63;2.50;;;21.20;99.90;;;;;;5134612;27;20047;-74
2023/08/17 11:45:11;;;;;;;4.88;3.60;;;21.40;99.90;;;;;;5134184;27;20067;-74
2023/08/17 11:47:41;;;;;;;4.70;3.00;;;21.60;99.90;;;;;;5134513;27;20118;-74
2023/08/17 11:50:10;;;;;;;3.50;2.53;;;21.70;99.90;;;;;;5135086;27;20148;-74
2023/08/17 11:52:36;;;;;;;5.60;2.53;;;21.70;99.90;;;;;;5134515;27;20486;-74
2023/08/17 11:55:05;;;;;;;3.83;2.28;;;21.70;99.90;;;;;;5134544;27;20070;-74
2023/08/17 11:57:31;;;;;;;7.53;2.80;;;21.80;99.90;;;;;;5135663;27;20048;-74
2023/08/17 11:59:58;;;;;;;5.97;2.33;;;22.00;99.90;;;;;;5117869;27;20094;-73
2023/08/17 12:02:25;;;;;;;2.90;2.65;;;21.90;99.90;;;;;;5136572;27;20043;-73
2023/08/17 12:04:51;;;;;;;2.67;2.30;;;21.90;99.90;;;;;;5135535;27;20043;-73
2023/08/17 12:07:18;;;;;;;6.43;2.70;;;22.00;99.90;;;;;;5135444;27;20051;-73
2023/08/17 12:09:48;;;;;;;3.97;2.47;;;22.20;99.90;;;;;;5116743;27;20132;-73
2023/08/17 12:12:17;;;;;;;5.47;2.15;;;22.30;99.90;;;;;;5134230;27;20122;-73
2023/08/17 12:14:43;;;;;;;6.30;2.78;;;22.30;99.90;;;;;;5133995;27;20074;-74
2023/08/17 12:17:15;;;;;;;5.88;2.88;;;22.30;99.90;;;;;;5134220;27;20062;-74
2023/08/17 12:19:40;;;;;;;6.32;2.65;;;22.30;99.90;;;;;;5134550;27;20127;-73
2023/08/17 12:22:06;;;;;;;4.47;2.60;;;22.30;99.90;;;;;;5134406;27;20043;-73
2023/08/17 12:24:32;;;;;;;3.35;2.35;;;22.20;99.90;;;;;;5133854;27;20043;-73
2023/08/17 12:26:58;;;;;;;2.83;2.58;;;22.20;99.90;;;;;;5133764;27;20100;-74
2023/08/17 12:29:24;;;;;;;4.10;2.88;;;22.20;99.90;;;;;;5115780;27;20049;-73
2023/08/17 12:31:52;;;;;;;5.13;2.67;;;22.10;99.90;;;;;;5115328;27;20118;-73
2023/08/17 12:34:18;;;;;;;8.02;2.70;;;22.10;99.90;;;;;;5115638;27;20050;-73
2023/08/17 12:36:44;;;;;;;7.72;3.05;;;22.10;99.90;;;;;;5133772;27;20085;-73
2023/08/17 12:39:10;;;;;;;4.40;2.88;;;22.20;99.90;;;;;;5133716;27;20046;-74
2023/08/17 12:41:36;;;;;;;5.32;2.97;;;22.40;99.90;;;;;;5134046;27;20376;-73
2023/08/17 12:44:01;;;;;;;3.33;2.83;;;22.50;99.90;;;;;;5133443;27;20043;-73
2023/08/17 12:46:27;;;;;;;7.88;4.05;;;22.70;99.90;;;;;;5133506;27;20062;-73
2023/08/17 12:48:53;;;;;;;2.72;2.53;;;22.60;99.90;;;;;;5133438;27;20620;-73